Time;durP1;ratioP1;P1;durP2;ratioP2;P2;SDS_P1;SDS_P2;PMS_P1;PMS_P2;Temp;Humidity;BMP_temperature;BMP_pressure;BME280_temperature;BME280_humidity;BME280_pressure;Samples;Min_cycle;Max_cycle;Signal;HPM_P1;HPM_P2
2022/12/27 00:00:52;;;;;;;18.50;10.27;;;;;;;10.20;100.00;100720.59;5068770;28;20029;-68
2022/12/27 00:03:18;;;;;;;17.00;11.45;;;;;;;10.18;100.00;100724.34;5068996;28;20048;-67
2022/12/27 00:05:46;;;;;;;17.92;11.05;;;;;;;10.14;100.00;100715.72;5068761;28;20195;-68
2022/12/27 00:08:11;;;;;;;15.25;10.13;;;;;;;10.15;100.00;100717.41;5068835;28;20603;-67
2022/12/27 00:10:37;;;;;;;16.50;11.20;;;;;;;9.99;100.00;100697.28;5066758;28;20028;-68
2022/12/27 00:13:03;;;;;;;14.70;11.18;;;;;;;10.13;100.00;100739.94;5070596;28;20062;-68
2022/12/27 00:15:29;;;;;;;16.30;10.07;;;;;;;10.16;100.00;100719.09;5072408;28;20453;-68
2022/12/27 00:17:54;;;;;;;17.90;10.57;;;;;;;10.24;100.00;100723.84;5071369;28;20024;-68
2022/12/27 00:20:20;;;;;;;16.83;11.80;;;;;;;10.37;100.00;100778.19;5072055;28;20033;-67
2022/12/27 00:22:45;;;;;;;18.02;11.60;;;;;;;10.56;100.00;100798.06;5072066;28;20504;-67
2022/12/27 00:25:11;;;;;;;15.82;10.75;;;;;;;10.54;100.00;100805.38;5072539;28;20043;-67
2022/12/27 00:27:37;;;;;;;20.35;11.30;;;;;;;10.39;100.00;100787.84;5071139;28;20028;-67
2022/12/27 00:30:04;;;;;;;18.17;11.65;;;;;;;10.41;100.00;100796.59;5071003;28;20490;-67
2022/12/27 00:32:29;;;;;;;19.38;10.73;;;;;;;10.36;100.00;100801.50;5070568;28;20021;-67
2022/12/27 00:34:54;;;;;;;17.10;11.25;;;;;;;10.28;100.00;100795.88;5071570;28;20047;-67
2022/12/27 00:37:20;;;;;;;17.38;10.50;;;;;;;10.08;100.00;100780.50;5071833;28;20045;-68
2022/12/27 00:39:46;;;;;;;17.20;11.10;;;;;;;10.11;100.00;100790.13;5071555;28;20048;-67
2022/12/27 00:42:11;;;;;;;20.67;11.43;;;;;;;10.11;100.00;100790.13;5070534;28;20484;-68
2022/12/27 00:44:37;;;;;;;19.17;11.63;;;;;;;10.10;100.00;100793.78;5069684;28;20028;-68
2022/12/27 00:47:02;;;;;;;19.52;12.60;;;;;;;10.11;100.00;100803.53;5062407;28;20458;-68
2022/12/27 00:49:28;;;;;;;19.80;11.95;;;;;;;10.14;100.00;100805.97;5052199;28;20520;-67
2022/12/27 00:51:53;;;;;;;20.33;12.20;;;;;;;10.13;100.00;100818.50;5056620;28;20073;-67
2022/12/27 00:54:19;;;;;;;19.95;12.10;;;;;;;10.11;100.00;100809.75;5070769;28;20029;-71
2022/12/27 00:56:44;;;;;;;22.58;13.52;;;;;;;10.08;100.00;100812.66;5071065;28;20033;-71
2022/12/27 00:59:11;;;;;;;21.35;11.90;;;;;;;9.96;100.00;100823.47;5073396;28;20028;-71
2022/12/27 01:01:37;;;;;;;20.90;12.60;;;;;;;9.88;100.00;100821.38;5082190;28;20020;-72
2022/12/27 01:04:04;;;;;;;20.45;13.13;;;;;;;10.01;100.00;100823.94;5093858;28;20028;-71
2022/12/27 01:06:31;;;;;;;20.17;13.52;;;;;;;9.92;100.00;100828.19;5094257;28;20024;-71
2022/12/27 01:08:58;;;;;;;22.88;14.35;;;;;;;9.90;100.00;100824.78;5092513;28;20540;-71
2022/12/27 01:11:25;;;;;;;21.42;13.90;;;;;;;9.71;100.00;100810.25;5092620;28;20052;-71
2022/12/27 01:13:54;;;;;;;21.70;15.13;;;;;;;9.77;100.00;100821.31;5085602;28;20101;-72
2022/12/27 01:16:22;;;;;;;23.08;15.10;;;;;;;9.62;100.00;100785.03;5072996;28;20029;-71
2022/12/27 01:18:48;;;;;;;22.70;15.15;;;;;;;9.71;100.00;100816.47;5073001;28;20065;-71
2022/12/27 01:21:17;;;;;;;24.90;16.73;;;;;;;9.83;100.00;100807.47;5073265;28;20051;-71
2022/12/27 01:23:42;;;;;;;23.05;15.85;;;;;;;9.76;100.00;100775.91;5072885;28;20367;-71
2022/12/27 01:26:12;;;;;;;24.33;15.88;;;;;;;9.91;100.00;100790.81;5071634;28;20089;-72
2022/12/27 01:28:37;;;;;;;20.85;14.65;;;;;;;9.85;100.00;100802.00;5073037;28;20028;-71
2022/12/27 01:31:12;;;;;;;24.10;15.77;;;;;;;9.78;100.00;100798.09;5073182;28;20017;-71
2022/12/27 01:33:38;;;;;;;21.73;15.98;;;;;;;9.69;100.00;100791.59;5072557;28;20111;-71
2022/12/27 01:36:07;;;;;;;24.70;15.98;;;;;;;9.70;100.00;100795.16;5071725;28;20553;-71
2022/12/27 01:38:33;;;;;;;22.30;15.88;;;;;;;9.78;100.00;100798.94;5072649;28;20485;-71
2022/12/27 01:40:58;;;;;;;23.17;15.32;;;;;;;9.62;100.00;100785.03;5071704;28;20091;-71
2022/12/27 01:43:37;;;;;;;25.08;15.43;;;;;;;9.64;100.00;100791.09;5073052;28;20119;-71
2022/12/27 01:46:02;;;;;;;25.40;17.13;;;;;;;9.63;100.00;100775.13;5071461;28;20362;-72
2022/12/27 01:48:27;;;;;;;28.85;19.50;;;;;;;9.74;100.00;100775.19;5072334;28;20040;-71
2022/12/27 01:50:59;;;;;;;28.20;19.15;;;;;;;9.83;100.00;100780.66;5072626;28;20032;-71
2022/12/27 01:53:42;;;;;;;25.25;17.73;;;;;;;9.77;100.00;100774.94;5072535;28;20029;-71
2022/12/27 01:56:16;;;;;;;27.88;18.80;;;;;;;9.56;100.00;100753.34;5072969;28;20358;-71
2022/12/27 01:59:03;;;;;;;25.60;19.20;;;;;;;9.60;100.00;100781.59;5072536;28;20103;-71
2022/12/27 02:01:40;;;;;;;31.60;20.70;;;;;;;9.47;100.00;100761.22;5072501;28;20389;-71
2022/12/27 02:04:09;;;;;;;33.50;19.00;;;;;;;9.65;100.00;100784.78;5071265;28;20478;-72
2022/12/27 02:06:36;;;;;;;38.65;20.40;;;;;;;9.71;100.00;100794.16;5070983;28;20394;-71
2022/12/27 02:09:02;;;;;;;28.90;19.77;;;;;;;9.69;100.00;100796.09;5072311;28;20477;-71
2022/12/27 02:11:52;;;;;;;30.35;20.05;;;;;;;9.49;100.00;100767.31;5071002;28;20093;-71
2022/12/27 02:14:34;;;;;;;33.80;21.10;;;;;;;9.63;100.00;100800.09;5072347;28;20473;-71
2022/12/27 02:17:05;;;;;;;33.08;21.40;;;;;;;9.56;100.00;100800.69;5072232;28;20066;-72
2022/12/27 02:19:39;;;;;;;34.75;21.95;;;;;;;9.67;100.00;100812.28;5072221;28;20059;-71
2022/12/27 02:22:14;;;;;;;30.88;20.73;;;;;;;9.56;100.00;100822.09;5071939;28;20541;-72
2022/12/27 02:25:10;;;;;;;34.50;21.33;;;;;;;9.58;100.00;100822.84;5071732;28;20035;-72
2022/12/27 02:27:54;;;;;;;32.67;21.80;;;;;;;9.47;100.00;100825.47;5070738;28;20522;-71
2022/12/27 02:30:20;;;;;;;34.60;22.08;;;;;;;9.45;100.00;100803.34;5070858;28;20059;-71
2022/12/27 02:32:59;;;;;;;33.25;22.08;;;;;;;9.57;100.00;100827.34;5071731;28;20097;-71
2022/12/27 02:35:39;;;;;;;32.53;22.48;;;;;;;9.56;100.00;100840.84;5071263;28;20489;-71
2022/12/27 02:38:14;;;;;;;32.60;21.98;;;;;;;9.46;100.00;100842.50;5071765;28;20129;-72
2022/12/27 02:55:13;;;;;;;36.58;24.08;;;;;;;9.43;100.00;100838.25;5071557;28;20027;-71
2022/12/27 02:57:54;;;;;;;34.30;23.98;;;;;;;9.36;100.00;100836.13;5070834;28;20107;-68
2022/12/27 03:03:19;;;;;;;36.58;23.98;;;;;;;9.36;100.00;100836.13;5069758;28;20043;-67
2022/12/27 03:08:59;;;;;;;34.60;22.40;;;;;;;9.38;100.00;100837.72;5069649;28;20185;-68
2022/12/27 03:17:25;;;;;;;39.92;26.40;;;;;;;9.33;100.00;100864.00;5070770;28;20031;-71
2022/12/27 03:25:39;;;;;;;44.85;28.27;;;;;;;9.24;100.00;100864.66;5070957;28;20043;-72
2022/12/27 03:39:48;;;;;;;40.88;25.73;;;;;;;9.02;100.00;100838.63;5069427;28;20098;-68
2022/12/27 03:45:05;;;;;;;35.55;22.42;;;;;;;8.99;100.00;100848.69;5069112;28;20055;-68
2022/12/27 03:48:00;;;;;;;32.75;22.77;;;;;;;9.13;100.00;100867.28;5070695;28;20020;-68
2022/12/27 03:50:43;;;;;;;30.90;21.02;;;;;;;9.12;100.00;100868.22;5073067;28;20048;-68
2022/12/27 03:53:17;;;;;;;32.17;21.05;;;;;;;9.19;100.00;100873.03;5073462;28;20028;-72
2022/12/27 03:55:42;;;;;;;26.83;19.23;;;;;;;9.15;100.00;100862.66;5074447;28;20607;-72
2022/12/27 03:58:08;;;;;;;28.20;19.20;;;;;;;9.22;100.00;100871.94;5074359;28;20112;-72
2022/12/27 04:00:34;;;;;;;28.88;19.63;;;;;;;9.20;100.00;100885.44;5074792;28;20020;-71
2022/12/27 04:02:59;;;;;;;24.55;17.50;;;;;;;9.13;100.00;100880.66;5074411;28;20020;-72
2022/12/27 04:05:25;;;;;;;26.65;18.70;;;;;;;9.11;100.00;100866.53;5074355;28;20478;-71
2022/12/27 04:35:10;;;;;;;24.25;14.50;;;;;;;8.75;100.00;100799.66;5072678;28;20114;-67
2022/12/27 04:37:35;;;;;;;21.02;13.00;;;;;;;9.10;100.00;100863.00;5072534;28;20767;-67
2022/12/27 04:56:27;;;;;;;16.52;11.45;;;;;;;9.20;100.00;100884.59;5071912;28;20082;-67
2022/12/27 05:04:21;;;;;;;16.60;11.80;;;;;;;9.19;100.00;100901.59;5072979;28;20043;-71
2022/12/27 05:06:46;;;;;;;17.02;11.57;;;;;;;9.16;100.00;100910.72;5071945;28;20028;-71
2022/12/27 05:14:44;;;;;;;14.57;10.13;;;;;;;9.46;100.00;100920.16;5042499;28;20036;-71
2022/12/27 05:17:10;;;;;;;14.27;9.65;;;;;;;9.42;100.00;100926.72;5071457;28;20041;-71
2022/12/27 05:19:36;;;;;;;11.55;8.75;;;;;;;9.46;100.00;100929.06;5070325;28;20025;-71
2022/12/27 05:27:29;;;;;;;11.93;8.63;;;;;;;9.43;100.00;100945.34;5071086;28;20096;-71
2022/12/27 05:29:54;;;;;;;11.07;7.78;;;;;;;9.38;100.00;100950.16;5071069;28;20469;-71
2022/12/27 05:32:19;;;;;;;12.70;8.13;;;;;;;9.50;100.00;100957.31;5070873;28;20021;-71
2022/12/27 05:34:45;;;;;;;11.40;7.38;;;;;;;9.53;100.00;100945.50;5069510;28;20097;-71
2022/12/27 05:37:10;;;;;;;10.20;7.22;;;;;;;9.53;100.00;100970.47;5071251;28;20047;-71
2022/12/27 05:39:36;;;;;;;10.23;6.72;;;;;;;9.41;100.00;100947.25;5069635;28;20020;-70
2022/12/27 05:42:02;;;;;;;8.75;6.53;;;;;;;9.63;100.00;100974.19;5067187;28;20030;-71
2022/12/27 05:44:27;;;;;;;9.07;6.05;;;;;;;9.46;100.00;100990.63;5062381;28;20024;-71
2022/12/27 05:46:53;;;;;;;10.32;7.15;;;;;;;9.10;100.00;100947.78;5069059;28;20101;-71
2022/12/27 05:49:19;;;;;;;10.35;7.07;;;;;;;9.35;100.00;100995.06;5070218;28;20056;-68
2022/12/27 05:51:44;;;;;;;11.23;6.63;;;;;;;9.32;100.00;100987.25;5069864;28;20066;-67
2022/12/27 05:54:10;;;;;;;9.48;6.15;;;;;;;9.43;100.00;101003.38;5069677;28;20473;-67
2022/12/27 05:56:36;;;;;;;9.02;6.75;;;;;;;9.29;100.00;101001.72;5068937;28;20017;-67
2022/12/27 05:59:02;;;;;;;9.00;6.40;;;;;;;9.35;100.00;101011.13;5068498;28;20078;-67
2022/12/27 06:01:27;;;;;;;9.65;7.07;;;;;;;9.24;100.00;100993.13;5070505;28;20480;-67
2022/12/27 06:03:53;;;;;;;11.45;7.28;;;;;;;9.23;100.00;101002.97;5070801;28;20112;-67
2022/12/27 06:06:18;;;;;;;11.50;6.38;;;;;;;9.27;100.00;101022.38;5052958;28;20031;-67
2022/12/27 06:08:44;;;;;;;11.75;7.53;;;;;;;9.11;100.00;101016.38;5070303;28;20082;-67
2022/12/27 06:11:15;;;;;;;9.70;7.20;;;;;;;9.25;100.00;101029.63;5067461;28;20043;-67
2022/12/27 06:13:42;;;;;;;14.40;7.85;;;;;;;9.30;100.00;101038.22;5068272;28;20016;-67
2022/12/27 06:16:10;;;;;;;12.05;7.43;;;;;;;9.21;100.00;101050.44;5070300;28;20033;-67
2022/12/27 06:18:37;;;;;;;11.02;7.72;;;;;;;9.18;100.00;101050.66;5070207;28;20024;-67
2022/12/27 06:21:23;;;;;;;13.27;8.07;;;;;;;9.18;100.00;101061.34;5070134;28;20074;-71
2022/12/27 06:23:49;;;;;;;12.50;8.05;;;;;;;9.19;100.00;101059.50;5071048;28;20479;-71
2022/12/27 06:26:18;;;;;;;12.98;7.70;;;;;;;9.09;100.00;101067.34;5067740;28;20052;-69
2022/12/27 06:28:43;;;;;;;11.77;8.18;;;;;;;8.84;100.00;101053.09;5067008;28;20531;-71
2022/12/27 06:31:09;;;;;;;12.43;7.78;;;;;;;8.92;100.00;101083.72;5071711;28;20079;-71
2022/12/27 06:33:34;;;;;;;12.77;7.55;;;;;;;8.74;100.00;101052.88;5071723;28;20036;-71
2022/12/27 06:36:09;;;;;;;13.60;8.23;;;;;;;8.91;100.00;101081.97;5071204;28;20044;-71
2022/12/27 06:38:35;;;;;;;14.90;8.40;;;;;;;8.90;100.00;101074.09;5071244;28;20497;-71
2022/12/27 06:41:11;;;;;;;12.13;7.20;;;;;;;8.94;100.00;101097.81;5095590;27;20377;-67
2022/12/27 06:43:37;;;;;;;11.00;7.63;;;;;;;8.74;100.00;101073.41;5090328;28;20042;-67
2022/12/27 06:46:05;;;;;;;10.85;7.53;;;;;;;8.94;100.00;101102.34;5101562;28;20042;-67
2022/12/27 06:48:30;;;;;;;13.77;7.80;;;;;;;8.77;100.00;101074.06;5089624;28;20095;-67
2022/12/27 06:50:56;;;;;;;12.60;7.93;;;;;;;8.70;100.00;101069.22;5082559;28;20127;-67
2022/12/27 06:53:22;;;;;;;11.95;8.10;;;;;;;8.73;100.00;101087.72;5084945;28;20393;-67
2022/12/27 06:55:48;;;;;;;13.75;8.32;;;;;;;8.74;100.00;101089.47;5084447;28;20031;-67
2022/12/27 06:58:13;;;;;;;13.70;8.00;;;;;;;8.73;100.00;101096.63;5084308;28;20020;-67
2022/12/27 07:00:40;;;;;;;11.85;8.00;;;;;;;8.88;100.00;101102.75;5084680;28;20035;-67
2022/12/27 07:03:06;;;;;;;12.02;7.30;;;;;;;8.85;100.00;101119.88;5084886;28;20044;-67
2022/12/27 07:05:34;;;;;;;11.85;7.07;;;;;;;8.81;100.00;101115.66;5084621;28;20028;-67
2022/12/27 07:07:59;;;;;;;13.57;7.93;;;;;;;8.86;100.00;101123.38;5084364;28;20405;-67
2022/12/27 07:10:25;;;;;;;11.13;6.47;;;;;;;8.92;100.00;101121.16;5084375;28;20032;-67
2022/12/27 07:12:50;;;;;;;8.75;6.80;;;;;;;9.03;100.00;101134.66;5084256;28;20040;-67
2022/12/27 07:15:16;;;;;;;10.43;7.25;;;;;;;9.02;100.00;101124.91;5084585;28;20055;-66
2022/12/27 07:17:41;;;;;;;10.05;6.63;;;;;;;8.92;100.00;101104.25;5084531;28;20032;-67
2022/12/27 07:20:07;;;;;;;11.30;6.72;;;;;;;9.04;100.00;101127.50;5084094;28;20426;-67
2022/12/27 07:22:33;;;;;;;10.68;6.85;;;;;;;8.85;100.00;101109.16;5084353;28;20030;-67
2022/12/27 07:24:58;;;;;;;10.80;6.15;;;;;;;9.03;100.00;101133.81;5084153;28;20032;-67
2022/12/27 07:27:24;;;;;;;9.80;5.68;;;;;;;9.01;100.00;101143.75;5084280;28;20024;-67
2022/12/27 07:29:50;;;;;;;8.88;5.70;;;;;;;9.14;99.70;101156.19;5083714;28;20008;-67
2022/12/27 07:32:16;;;;;;;8.88;5.88;;;;;;;9.13;98.92;101143.75;5084198;28;20035;-66
2022/12/27 07:34:41;;;;;;;9.52;6.32;;;;;;;9.11;99.22;101153.72;5084282;28;20021;-67
2022/12/27 07:37:06;;;;;;;9.55;6.00;;;;;;;9.12;99.55;101154.56;5082775;28;20032;-67
2022/12/27 07:39:32;;;;;;;11.80;6.47;;;;;;;9.09;98.66;101168.16;5083520;28;20079;-67
2022/12/27 07:41:57;;;;;;;11.85;6.70;;;;;;;9.06;98.67;101161.19;5078586;28;20059;-67
2022/12/27 07:44:23;;;;;;;9.20;5.80;;;;;;;9.14;98.05;101179.41;5079019;28;20020;-67
2022/12/27 07:46:48;;;;;;;11.15;5.38;;;;;;;9.23;96.83;101166.25;5080895;28;20028;-67
2022/12/27 07:49:14;;;;;;;7.97;5.20;;;;;;;9.32;96.39;101172.78;5082093;28;20035;-67
2022/12/27 07:51:39;;;;;;;8.82;5.43;;;;;;;9.25;95.91;101168.81;5071802;28;20032;-67
2022/12/27 07:54:05;;;;;;;4.50;3.50;;;;;;;9.48;94.02;101184.16;5066871;28;20028;-66
2022/12/27 07:56:30;;;;;;;6.20;3.72;;;;;;;9.54;93.34;101190.91;5069683;28;20033;-66
2022/12/27 07:58:57;;;;;;;4.53;3.28;;;;;;;9.40;92.48;101151.72;5069494;28;20032;-67
2022/12/27 08:01:25;;;;;;;5.28;3.25;;;;;;;9.55;91.04;101174.75;5069757;28;20375;-66
2022/12/27 08:03:50;;;;;;;4.28;3.17;;;;;;;9.54;91.69;101182.88;5069425;28;20036;-66
2022/12/27 08:06:27;;;;;;;5.75;2.78;;;;;;;9.69;90.74;101188.03;5068249;28;20033;-67
2022/12/27 08:08:54;;;;;;;4.47;3.10;;;;;;;9.87;88.96;101192.06;5069066;28;20048;-67
2022/12/27 08:11:19;;;;;;;5.00;3.05;;;;;;;10.00;87.77;101194.75;5069771;28;20048;-67
2022/12/27 08:13:45;;;;;;;7.25;2.80;;;;;;;9.91;87.56;101187.34;5069205;28;20028;-67
2022/12/27 08:16:16;;;;;;;4.55;2.90;;;;;;;10.13;85.81;101212.53;5069564;28;20028;-67
2022/12/27 08:18:42;;;;;;;3.70;2.30;;;;;;;10.18;85.21;101218.44;5069372;28;20036;-67
2022/12/27 08:21:07;;;;;;;3.78;2.65;;;;;;;10.24;83.26;101209.94;5069134;28;20618;-67
2022/12/27 08:23:33;;;;;;;3.83;2.30;;;;;;;10.21;84.54;101214.66;5069463;28;20021;-67
2022/12/27 08:25:58;;;;;;;3.88;2.30;;;;;;;10.26;83.55;101226.78;5069113;28;20262;-66
2022/12/27 08:28:23;;;;;;;3.65;1.88;;;;;;;10.22;83.73;101214.56;5067756;28;20028;-67
2022/12/27 08:30:49;;;;;;;2.70;1.67;;;;;;;10.32;80.71;101229.00;5068904;28;20474;-67
2022/12/27 08:33:14;;;;;;;4.40;2.15;;;;;;;10.30;80.18;101236.31;5069601;28;20475;-67
2022/12/27 08:35:41;;;;;;;2.17;1.40;;;;;;;10.31;79.55;101227.31;5068839;28;20036;-67
2022/12/27 08:38:07;;;;;;;2.25;1.30;;;;;;;10.41;76.76;101236.41;5069107;28;20394;-66
2022/12/27 08:40:33;;;;;;;2.65;1.90;;;;;;;10.43;77.01;101217.50;5067184;28;20056;-67
2022/12/27 08:42:58;;;;;;;1.92;1.15;;;;;;;10.59;74.12;101216.28;5068735;28;20033;-67
2022/12/27 08:45:24;;;;;;;1.63;0.93;;;;;;;10.62;74.41;101213.38;5068672;28;20036;-66
2022/12/27 08:47:49;;;;;;;1.65;0.90;;;;;;;10.58;75.22;101225.28;5068613;28;20033;-67
2022/12/27 08:50:15;;;;;;;1.50;0.98;;;;;;;10.51;77.05;101236.59;5069265;28;20359;-67
2022/12/27 08:52:40;;;;;;;1.55;1.10;;;;;;;10.73;74.33;101247.44;5068332;28;20021;-67
2022/12/27 08:55:06;;;;;;;1.10;0.80;;;;;;;10.73;74.89;101250.13;5068623;28;20028;-67
2022/12/27 08:57:32;;;;;;;1.40;1.02;;;;;;;10.83;74.04;101249.34;5068540;28;20052;-67
2022/12/27 08:59:57;;;;;;;1.65;1.05;;;;;;;10.80;71.97;101227.25;5068006;28;20039;-67
2022/12/27 09:02:22;;;;;;;4.03;1.45;;;;;;;10.70;73.91;101248.53;5068103;28;20020;-67
2022/12/27 09:04:48;;;;;;;1.40;1.30;;;;;;;10.83;72.06;101254.72;5068142;28;20043;-67
2022/12/27 09:07:13;;;;;;;2.35;1.02;;;;;;;10.91;71.68;101262.19;5068673;28;20044;-67
2022/12/27 09:09:39;;;;;;;1.75;1.10;;;;;;;10.77;72.09;101248.94;5068400;28;20028;-67
2022/12/27 09:12:05;;;;;;;2.67;1.52;;;;;;;10.89;71.25;101259.63;5068177;28;20102;-67
2022/12/27 09:17:52;;;;;;;2.50;1.40;;;;;;;10.89;71.00;101248.88;5067812;28;20486;-67
2022/12/27 09:20:17;;;;;;;3.17;1.70;;;;;;;10.76;72.43;101253.44;5069393;28;20036;-67
2022/12/27 09:22:43;;;;;;;4.20;1.33;;;;;;;10.77;70.78;101251.63;5069514;28;20095;-67
2022/12/27 09:25:08;;;;;;;2.85;1.27;;;;;;;10.77;70.91;101257.84;5068351;28;20024;-67
2022/12/27 09:27:36;;;;;;;2.65;1.20;;;;;;;10.58;70.90;101224.44;5069865;28;20470;-67
2022/12/27 09:30:02;;;;;;;1.80;1.00;;;;;;;10.84;70.52;101266.31;5070258;28;20025;-67
2022/12/27 09:32:28;;;;;;;2.58;1.35;;;;;;;10.80;70.50;101246.88;5069946;28;20064;-67
2022/12/27 09:34:53;;;;;;;2.40;1.13;;;;;;;10.80;70.63;101265.66;5069774;28;20071;-68
2022/12/27 09:37:19;;;;;;;2.85;1.00;;;;;;;10.84;70.24;101266.31;5067771;28;20131;-68
2022/12/27 09:39:44;;;;;;;3.65;1.67;;;;;;;10.79;70.44;101258.59;5069300;28;20048;-67
2022/12/27 09:42:28;;;;;;;4.68;1.50;;;;;;;10.88;70.67;101265.97;5069604;28;20027;-67
2022/12/27 09:45:12;;;;;;;2.50;1.23;;;;;;;10.75;71.23;101265.16;5069522;28;20038;-67
2022/12/27 09:47:54;;;;;;;1.25;0.85;;;;;;;10.85;70.23;101268.00;5068109;28;20037;-67
2022/12/27 09:50:28;;;;;;;1.10;0.80;;;;;;;10.86;69.45;101272.41;5069279;28;20486;-67
2022/12/27 09:53:00;;;;;;;0.80;0.80;;;;;;;10.88;69.65;101263.28;5067901;28;20033;-67
2022/12/27 09:55:33;;;;;;;2.72;1.17;;;;;;;11.02;68.08;101276.53;5069484;28;20081;-67
2022/12/27 09:58:31;;;;;;;2.28;0.90;;;;;;;10.88;69.70;101271.34;5069373;28;20039;-67
2022/12/27 10:00:57;;;;;;;3.40;0.80;;;;;;;10.81;69.08;101261.16;5068823;28;20060;-67
2022/12/27 10:03:27;;;;;;;4.65;1.02;;;;;;;10.72;69.84;101267.19;5069039;28;20025;-67
2022/12/27 10:06:10;;;;;;;0.95;0.52;;;;;;;10.72;68.32;101269.88;5069201;28;20040;-68
2022/12/27 10:09:16;;;;;;;1.02;0.65;;;;;;;10.90;66.78;101274.75;5067783;28;20391;-67
2022/12/27 10:11:54;;;;;;;0.80;0.52;;;;;;;10.83;67.79;101278.84;5069054;28;20036;-67
2022/12/27 10:15:04;;;;;;;1.13;0.80;;;;;;;10.61;67.77;101257.25;5068271;28;20046;-67
2022/12/27 10:17:46;;;;;;;0.88;0.60;;;;;;;10.81;67.47;101283.47;5049018;28;20364;-68
2022/12/27 10:20:20;;;;;;;1.20;0.75;;;;;;;10.98;64.27;101304.59;5065240;28;20044;-67
2022/12/27 10:22:56;;;;;;;0.82;0.45;;;;;;;10.76;65.25;101285.66;5090626;27;20032;-68
2022/12/27 10:25:24;;;;;;;4.07;0.60;;;;;;;10.76;64.71;101301.75;5054589;28;20033;-68
2022/12/27 10:28:14;;;;;;;1.30;0.50;;;;;;;10.88;63.01;101295.50;5052354;28;20032;-68
2022/12/27 10:30:41;;;;;;;1.00;0.65;;;;;;;10.77;64.18;101303.47;5054283;28;20017;-68
2022/12/27 10:33:21;;;;;;;1.48;0.90;;;;;;;10.73;64.16;101301.97;5048353;28;20040;-68
2022/12/27 10:35:47;;;;;;;0.90;0.70;;;;;;;10.82;62.91;101306.69;5053639;28;20025;-68
2022/12/27 10:38:13;;;;;;;2.00;0.80;;;;;;;10.74;62.36;101306.38;5050160;28;20032;-68
2022/12/27 10:40:44;;;;;;;2.13;0.88;;;;;;;10.64;62.94;101310.69;5055243;28;20049;-68
2022/12/27 10:43:31;;;;;;;1.20;0.80;;;;;;;10.55;62.84;101314.03;5056525;28;20036;-68
2022/12/27 10:46:11;;;;;;;2.13;1.10;;;;;;;10.63;60.56;101316.16;5055533;28;20054;-68
2022/12/27 10:48:37;;;;;;;2.08;1.02;;;;;;;10.64;61.12;101312.53;5059322;28;20798;-68
2022/12/27 10:51:10;;;;;;;0.82;0.60;;;;;;;10.90;55.09;101311.50;5065627;28;20048;-69
2022/12/27 10:53:45;;;;;;;1.08;0.70;;;;;;;10.78;55.22;101310.56;5056509;28;20103;-68
2022/12/27 10:56:20;;;;;;;0.90;0.60;;;;;;;10.62;54.57;101306.41;5056305;28;20028;-69
2022/12/27 10:58:48;;;;;;;1.30;0.88;;;;;;;10.60;54.13;101295.78;5053390;28;20179;-68
2022/12/27 11:01:15;;;;;;;1.08;0.50;;;;;;;10.58;54.10;101305.75;5049802;28;20032;-68
2022/12/27 11:03:40;;;;;;;0.85;0.60;;;;;;;10.73;52.44;101296.59;5047975;28;20033;-67
2022/12/27 11:06:17;;;;;;;1.17;0.63;;;;;;;10.49;53.07;101278.75;5054115;28;20637;-68
2022/12/27 11:08:42;;;;;;;1.98;0.60;;;;;;;10.46;54.02;101295.06;5062554;28;20044;-68
2022/12/27 11:11:17;;;;;;;1.65;0.70;;;;;;;10.65;53.76;101293.66;5069019;28;20036;-68
2022/12/27 11:13:42;;;;;;;3.08;0.80;;;;;;;10.66;51.66;101295.34;5063453;28;20043;-67
2022/12/27 11:16:27;;;;;;;1.88;0.75;;;;;;;10.71;50.73;101292.34;5049985;28;20033;-68
2022/12/27 11:18:56;;;;;;;3.38;0.95;;;;;;;10.43;52.11;101298.84;5054292;28;20044;-68
2022/12/27 11:21:21;;;;;;;2.67;0.82;;;;;;;10.47;50.48;101297.63;5084981;28;20037;-68
2022/12/27 11:23:51;;;;;;;2.80;0.80;;;;;;;10.45;50.28;101296.03;5059512;28;20024;-68
2022/12/27 11:26:48;;;;;;;19.30;14.82;;;;;;;10.18;52.00;101266.69;5065572;28;20031;-68
2022/12/27 11:29:17;;;;;;;2.17;1.20;;;;;;;10.20;51.63;101294.25;5050467;28;20048;-67
2022/12/27 11:31:47;;;;;;;2.05;0.90;;;;;;;10.23;50.33;101298.53;5050283;28;20033;-68
2022/12/27 11:34:15;;;;;;;1.70;0.85;;;;;;;10.41;49.03;101295.38;5052293;28;20098;-68
2022/12/27 11:36:44;;;;;;;1.10;0.70;;;;;;;10.25;49.77;101288.56;5050107;28;20025;-69
2022/12/27 11:39:39;;;;;;;1.27;1.00;;;;;;;10.20;49.89;101288.03;5055281;28;20462;-67
2022/12/27 11:42:13;;;;;;;3.60;1.02;;;;;;;10.07;49.92;101296.09;5057618;28;20513;-69
2022/12/27 11:44:52;;;;;;;1.60;1.15;;;;;;;10.11;49.00;101304.75;5064135;28;20096;-67
2022/12/27 11:47:31;;;;;;;17.15;1.73;;;;;;;10.25;48.40;101315.38;5072586;28;20434;-68
2022/12/27 11:50:11;;;;;;;2.83;0.85;;;;;;;10.00;49.51;101320.69;5067680;28;20047;-68
2022/12/27 11:52:46;;;;;;;3.40;1.00;;;;;;;10.02;49.68;101318.75;5052802;28;20036;-67
2022/12/27 11:55:51;;;;;;;3.30;1.35;;;;;;;10.02;49.60;101324.97;5049802;28;20371;-68
2022/12/27 11:58:27;;;;;;;;;;;;;;;10.10;49.63;101327.16;5050445;28;20024;-68
2022/12/27 12:01:14;;;;;;;4.18;1.20;;;;;;;9.99;50.55;101335.91;5049398;28;19920;-70
2022/12/27 12:03:57;;;;;;;1.67;1.00;;;;;;;9.93;51.33;101333.66;5051405;28;20037;-68
2022/12/27 12:06:38;;;;;;;2.67;1.10;;;;;;;10.07;50.05;101333.59;5050227;28;20025;-68
2022/12/27 12:09:06;;;;;;;2.92;0.93;;;;;;;10.02;50.68;101332.16;5054016;28;20032;-68
2022/12/27 12:11:55;;;;;;;3.78;1.17;;;;;;;9.98;51.35;101352.97;5061468;28;20040;-67
2022/12/27 12:15:04;;;;;;;2.88;1.13;;;;;;;10.09;50.71;101357.63;5049879;28;20483;-67
2022/12/27 12:17:42;;;;;;;1.38;0.90;;;;;;;10.02;51.24;101358.97;5044469;28;20041;-68
2022/12/27 12:21:21;;;;;;;3.65;1.20;;;;;;;10.00;51.83;101372.47;5052397;28;20027;-69
2022/12/27 12:24:07;;;;;;;1.55;1.02;;;;;;;9.97;51.55;101380.75;4977316;28;20050;-69
2022/12/27 12:26:59;;;;;;;2.10;1.10;;;;;;;9.99;51.21;101388.69;4984180;28;20034;-68
2022/12/27 12:29:52;;;;;;;4.65;1.20;;;;;;;9.89;52.08;101393.78;5035517;28;20060;-68
2022/12/27 12:32:20;;;;;;;2.35;1.23;;;;;;;10.15;51.63;101389.34;5057193;28;20399;-67
2022/12/27 12:35:13;;;;;;;2.65;1.38;;;;;;;10.18;51.24;101397.19;5064047;28;20127;-68
2022/12/27 12:37:44;;;;;;;2.72;0.93;;;;;;;10.17;51.23;101404.38;5047674;28;20056;-67
2022/12/27 12:40:50;;;;;;;1.45;1.17;;;;;;;9.88;51.07;101364.41;5048838;28;20140;-68
2022/12/27 12:43:35;;;;;;;2.78;1.30;;;;;;;10.06;51.33;101395.31;5059537;28;20043;-68
2022/12/27 12:46:31;;;;;;;3.45;1.80;;;;;;;10.03;51.50;101390.19;5048844;28;20032;-68
2022/12/27 12:49:08;;;;;;;2.38;1.30;;;;;;;9.94;52.21;101388.97;5053354;28;20150;-67
2022/12/27 12:52:05;;;;;;;3.83;1.50;;;;;;;9.84;52.39;101387.03;5050556;28;20517;-67
2022/12/27 12:55:05;;;;;;;5.68;2.22;;;;;;;9.95;50.82;101392.50;5043956;28;20060;-68
2022/12/27 12:57:30;;;;;;;2.08;1.42;;;;;;;9.80;50.15;101404.28;5048518;28;20037;-68
2022/12/27 13:00:11;;;;;;;3.45;1.65;;;;;;;9.74;49.00;101416.25;5048042;28;20517;-67
2022/12/27 13:02:50;;;;;;;4.82;1.67;;;;;;;9.65;49.40;101426.72;5048583;28;20151;-67
2022/12/27 13:05:41;;;;;;;17.55;8.90;;;;;;;9.66;49.95;101423.06;5048745;28;20116;-66
2022/12/27 13:08:19;;;;;;;14.15;8.50;;;;;;;9.64;49.85;101439.25;5059103;28;20040;-66
2022/12/27 13:10:50;;;;;;;5.80;3.63;;;;;;;9.54;49.52;101446.19;5067659;28;20108;-67
2022/12/27 13:13:43;;;;;;;4.55;2.60;;;;;;;9.52;49.17;101442.75;5061257;28;20080;-68
2022/12/27 13:16:35;;;;;;;4.35;2.50;;;;;;;9.56;49.82;101441.59;5048343;28;20079;-67
2022/12/27 13:19:26;;;;;;;6.53;2.85;;;;;;;9.48;50.77;101433.19;5063701;28;20108;-68
2022/12/27 13:22:20;;;;;;;4.40;1.95;;;;;;;9.61;50.53;101442.13;5054487;28;20029;-67
2022/12/27 13:25:01;;;;;;;8.75;4.80;;;;;;;9.64;48.78;101441.94;5047635;28;20021;-67
2022/12/27 13:27:48;;;;;;;20.17;9.30;;;;;;;9.65;47.63;101442.78;5048308;28;20041;-66
2022/12/27 13:30:32;;;;;;;46.40;21.60;;;;;;;9.46;48.60;101443.16;5048955;28;20021;-68